IE-0010 weather

ILAS Wexford
County Wexford, Ireland

Public forecast

Using degrees Celsius for public forecast. Weather courtesy of forecast.io.

Closest aviation weather report (METAR) to ILAS Wexford

Closest report is Waterford Airport, 16.3 nm (30.2 km) WSW. Retrieved 2019/12/16 09:00 UTC (1 hour ago):

EIWF 160900Z 27004KT 240V300 9999 VCSH FEW018CB FEW031 03/01 Q0997

Closest aviation forecast (TAF) to ILAS Wexford

Closest forecast is Dublin Airport, 69.1 nm (127.9 km) NNE. Retrieved 2019/12/16 06:09 UTC (4 hours ago):

TAF EIDW 160500Z 1606/1706 23010KT 9999 FEW010 SCT016 PROB30 TEMPO 1704/1706 3000 BR